createdAt,value
2019-02-28T00:01:46.322Z,5.80
2019-02-28T00:04:14.229Z,5.80
2019-02-28T00:06:44.322Z,5.90
2019-02-28T00:09:14.518Z,5.80
2019-02-28T00:11:43.577Z,5.80
2019-02-28T00:14:12.699Z,5.90
2019-02-28T00:16:42.237Z,5.90
2019-02-28T00:19:11.387Z,5.80
2019-02-28T00:21:41.327Z,5.80
2019-02-28T00:24:11.221Z,5.80
2019-02-28T00:26:46.536Z,5.80
2019-02-28T00:29:11.960Z,5.80
2019-02-28T00:31:40.965Z,5.70
2019-02-28T00:34:10.084Z,5.70
2019-02-28T00:36:39.306Z,5.70
2019-02-28T00:39:08.457Z,5.70
2019-02-28T00:41:43.141Z,5.70
2019-02-28T00:44:08.992Z,5.60
2019-02-28T00:46:37.917Z,5.60
2019-02-28T00:49:07.158Z,5.60
2019-02-28T00:51:36.209Z,5.60
2019-02-28T00:54:08.451Z,5.50
2019-02-28T00:56:36.169Z,5.50
2019-02-28T00:59:05.193Z,5.50
2019-02-28T01:01:34.100Z,5.40
2019-02-28T01:04:03.333Z,5.40
2019-02-28T01:06:32.361Z,5.30
2019-02-28T01:09:01.414Z,5.30
2019-02-28T01:11:30.481Z,5.30
2019-02-28T01:14:01.588Z,5.20
2019-02-28T01:16:30.472Z,5.20
2019-02-28T01:18:59.517Z,5.10
2019-02-28T01:21:29.067Z,5.10
2019-02-28T01:24:00.563Z,5.20
2019-02-28T01:26:30.517Z,5.10
2019-02-28T01:29:02.064Z,5.20
2019-02-28T01:31:30.929Z,5.20
2019-02-28T01:34:00.194Z,5.20
2019-02-28T01:36:29.978Z,5.10
2019-02-28T01:38:59.185Z,5.10
2019-02-28T01:41:29.433Z,5.10
2019-02-28T01:44:01.705Z,5.10
2019-02-28T01:46:29.828Z,5.00
2019-02-28T01:48:58.900Z,5.00
2019-02-28T01:51:27.773Z,5.00
2019-02-28T01:53:57.057Z,5.10
2019-02-28T01:56:26.293Z,5.10
2019-02-28T01:58:55.599Z,5.10
2019-02-28T02:01:24.964Z,5.20
2019-02-28T04:08:14.341Z,4.90
2019-02-28T04:10:43.625Z,4.80
2019-02-28T04:13:12.963Z,4.80
2019-02-28T04:15:50.751Z,4.80
2019-02-28T04:18:13.585Z,4.80
2019-02-28T04:20:42.686Z,4.70
2019-02-28T04:23:11.932Z,4.70
2019-02-28T04:25:40.866Z,4.70
2019-02-28T04:28:16.889Z,4.70
2019-02-28T04:30:43.711Z,4.70
2019-02-28T04:33:13.180Z,4.70
2019-02-28T04:35:42.534Z,4.80
2019-02-28T04:38:11.632Z,4.80
2019-02-28T04:40:40.825Z,4.70
2019-02-28T04:43:10.857Z,4.70
2019-02-28T04:45:39.965Z,4.80
2019-02-28T04:48:13.665Z,4.80
2019-02-28T04:50:40.366Z,4.70
2019-02-28T04:53:09.527Z,4.70
2019-02-28T04:55:38.621Z,4.60
2019-02-28T04:58:07.501Z,4.60
2019-02-28T05:00:37.830Z,4.60
2019-02-28T05:03:07.477Z,4.60
2019-02-28T05:05:36.745Z,4.60
2019-02-28T05:08:06.621Z,4.60
2019-02-28T05:10:35.702Z,4.50
2019-02-28T05:13:04.737Z,4.50
2019-02-28T05:15:37.388Z,4.40
2019-02-28T05:18:04.847Z,4.30
2019-02-28T05:20:33.833Z,4.30
2019-02-28T05:23:02.981Z,4.30
2019-02-28T05:25:32.410Z,4.30
2019-02-28T05:28:01.849Z,4.30
2019-02-28T05:30:30.918Z,4.30
2019-02-28T05:32:59.883Z,4.30
2019-02-28T05:35:29.130Z,4.20
2019-02-28T05:37:58.411Z,4.20
2019-02-28T05:40:27.593Z,4.10
2019-02-28T05:42:58.509Z,4.10
2019-02-28T05:45:27.357Z,4.10
2019-02-28T05:47:57.304Z,4.10
2019-02-28T05:50:26.267Z,4.00
2019-02-28T05:52:55.375Z,4.00
2019-02-28T05:55:25.597Z,4.00
2019-02-28T05:57:55.992Z,4.00
2019-02-28T06:00:25.592Z,4.00
2019-02-28T06:02:58.029Z,4.00
2019-02-28T06:05:25.886Z,4.10
2019-02-28T06:07:55.146Z,4.10
2019-02-28T06:10:24.915Z,4.00
2019-02-28T06:12:54.324Z,4.00
2019-02-28T06:15:23.584Z,4.00
2019-02-28T06:17:55.024Z,4.00
2019-02-28T06:20:24.165Z,4.00
2019-02-28T06:22:53.262Z,4.10
2019-02-28T06:25:25.067Z,4.10
2019-02-28T06:27:53.455Z,4.10
2019-02-28T06:30:22.525Z,4.10
2019-02-28T06:32:57.836Z,4.10
2019-02-28T06:35:22.812Z,4.10
2019-02-28T06:37:52.063Z,4.10
2019-02-28T06:40:21.762Z,4.10
2019-02-28T06:42:51.202Z,4.00
2019-02-28T06:45:20.526Z,4.00
2019-02-28T06:47:50.229Z,4.00
2019-02-28T06:50:19.447Z,4.00
2019-02-28T06:52:48.454Z,4.00
2019-02-28T06:55:21.599Z,4.00
2019-02-28T06:57:51.009Z,4.10
2019-02-28T07:00:20.465Z,4.00
2019-02-28T07:02:50.257Z,4.10
2019-02-28T07:05:24.847Z,4.10
2019-02-28T07:07:50.882Z,4.10
2019-02-28T07:10:19.948Z,4.10
2019-02-28T07:12:49.209Z,4.10
2019-02-28T07:15:23.703Z,4.20
2019-02-28T07:17:48.973Z,4.20
2019-02-28T07:20:18.398Z,4.20
2019-02-28T07:22:48.312Z,4.20
2019-02-28T07:25:17.377Z,4.20
2019-02-28T07:27:46.477Z,4.30
2019-02-28T07:30:18.630Z,4.40
2019-02-28T07:32:46.454Z,4.50
2019-02-28T07:35:15.489Z,4.50
2019-02-28T07:37:44.528Z,4.60
2019-02-28T07:40:16.992Z,4.70
2019-02-28T07:42:46.689Z,4.70
2019-02-28T07:45:16.124Z,4.90
2019-02-28T07:47:51.669Z,5.00
2019-02-28T07:50:17.603Z,5.10
2019-02-28T07:52:46.617Z,5.20
2019-02-28T07:55:15.983Z,5.30
2019-02-28T07:57:51.161Z,5.50
2019-02-28T08:00:18.598Z,5.60
2019-02-28T08:02:47.822Z,5.80
2019-02-28T08:05:19.073Z,5.80
2019-02-28T08:07:52.197Z,5.90
2019-02-28T08:10:20.709Z,5.90
2019-02-28T08:12:50.081Z,5.90
2019-02-28T08:15:22.276Z,6.00
2019-02-28T08:17:54.100Z,6.10
2019-02-28T08:20:25.279Z,6.10
2019-02-28T08:22:56.818Z,6.20
2019-02-28T08:25:25.214Z,6.20
2019-02-28T08:27:59.186Z,6.30
2019-02-28T08:30:25.789Z,6.30
2019-02-28T08:32:55.131Z,6.40
2019-02-28T08:35:24.462Z,6.50
2019-02-28T08:37:56.998Z,6.70
2019-02-28T08:40:26.667Z,6.80
2019-02-28T08:42:55.837Z,7.00
2019-02-28T08:45:25.058Z,7.20
2019-02-28T08:47:56.769Z,7.50
2019-02-28T08:50:25.697Z,8.00
2019-02-28T08:52:55.094Z,8.10
2019-02-28T08:55:28.887Z,8.30
2019-02-28T08:57:57.970Z,8.40
2019-02-28T09:00:31.042Z,8.70
2019-02-28T09:02:57.090Z,9.00
2019-02-28T09:05:29.883Z,9.00
2019-02-28T09:07:58.278Z,9.20
2019-02-28T09:10:27.433Z,9.30
2019-02-28T09:12:56.449Z,9.40
2019-02-28T09:15:29.966Z,9.60
2019-02-28T09:17:59.405Z,10.00
2019-02-28T09:20:27.709Z,10.20
2019-02-28T09:23:01.522Z,10.10
2019-02-28T09:25:28.437Z,10.10
2019-02-28T09:27:57.802Z,10.30
2019-02-28T09:30:30.613Z,10.40
2019-02-28T09:33:00.427Z,10.60
2019-02-28T09:35:30.278Z,10.70
2019-02-28T09:38:06.403Z,10.80
2019-02-28T09:40:32.040Z,10.80
2019-02-28T09:43:01.069Z,11.10
2019-02-28T09:45:30.037Z,11.10
2019-02-28T09:48:02.077Z,10.90
2019-02-28T09:50:29.957Z,10.80
2019-02-28T09:52:58.885Z,10.80
2019-02-28T09:55:28.211Z,10.70
2019-02-28T09:57:57.623Z,10.70
2019-02-28T10:00:27.700Z,10.80
2019-02-28T10:02:57.139Z,11.20
2019-02-28T10:05:26.426Z,11.90
2019-02-28T10:08:01.584Z,12.00
2019-02-28T10:10:26.229Z,11.80
2019-02-28T10:12:56.857Z,11.60
2019-02-28T10:15:26.110Z,11.70
2019-02-28T10:17:55.457Z,11.90
2019-02-28T10:20:27.214Z,12.70
2019-02-28T10:22:56.996Z,13.70
2019-02-28T10:25:26.014Z,13.90
2019-02-28T10:27:58.454Z,16.00
2019-02-28T10:30:31.845Z,18.00
2019-02-28T10:32:56.981Z,17.30
2019-02-28T10:35:25.986Z,15.80
2019-02-28T10:37:58.379Z,14.70
2019-02-28T10:40:26.048Z,14.00
2019-02-28T10:42:55.346Z,13.80
2019-02-28T10:45:24.912Z,13.60
2019-02-28T10:47:55.579Z,13.30
2019-02-28T10:50:25.967Z,13.70
2019-02-28T10:52:55.423Z,13.70
2019-02-28T10:55:24.813Z,13.80
2019-02-28T10:57:54.133Z,13.60
2019-02-28T11:00:29.341Z,13.50
2019-02-28T11:02:57.902Z,13.40
2019-02-28T11:05:29.810Z,13.30
2019-02-28T11:07:59.305Z,13.10
2019-02-28T11:10:35.521Z,12.90
2019-02-28T11:13:05.278Z,12.90
2019-02-28T11:15:34.304Z,13.10
2019-02-28T11:18:08.532Z,13.20
2019-02-28T11:20:34.146Z,13.70
2019-02-28T11:23:03.500Z,14.00
2019-02-28T11:25:35.450Z,14.30
2019-02-28T11:28:03.801Z,14.60
2019-02-28T11:30:32.945Z,14.80
2019-02-28T11:33:04.553Z,14.80
2019-02-28T11:35:33.772Z,14.80
2019-02-28T11:38:04.925Z,14.90
2019-02-28T11:40:34.203Z,15.10
2019-02-28T11:43:04.078Z,15.00
2019-02-28T11:45:33.829Z,15.20
2019-02-28T11:48:03.943Z,15.30
2019-02-28T11:50:33.568Z,15.30
2019-02-28T11:53:05.806Z,15.60
2019-02-28T11:55:33.274Z,15.50
2019-02-28T11:58:02.408Z,15.60
2019-02-28T12:00:32.508Z,15.70
2019-02-28T12:03:02.987Z,15.70
2019-02-28T12:05:31.944Z,15.70
2019-02-28T12:08:01.245Z,15.70
2019-02-28T12:10:30.294Z,15.80
2019-02-28T12:12:59.689Z,15.70
2019-02-28T12:15:29.629Z,15.70
2019-02-28T12:18:03.640Z,15.90
2019-02-28T12:20:29.405Z,16.00
2019-02-28T12:22:58.468Z,16.20
2019-02-28T12:25:27.730Z,16.10
2019-02-28T12:27:59.383Z,16.00
2019-02-28T12:30:28.177Z,16.10
2019-02-28T12:32:57.405Z,16.00
2019-02-28T12:35:26.709Z,16.10
2019-02-28T12:37:55.782Z,16.10
2019-02-28T12:40:26.595Z,16.20
2019-02-28T12:42:55.603Z,16.20
2019-02-28T12:45:30.416Z,16.20
2019-02-28T12:47:59.496Z,16.20
2019-02-28T12:50:29.381Z,16.10
2019-02-28T12:52:59.287Z,16.00
2019-02-28T12:55:28.414Z,16.00
2019-02-28T12:57:57.822Z,15.90
2019-02-28T13:00:30.592Z,15.90
2019-02-28T13:02:59.843Z,15.90
2019-02-28T13:05:28.925Z,15.90
2019-02-28T13:07:58.334Z,15.90
2019-02-28T13:10:28.610Z,16.00
2019-02-28T13:13:06.300Z,16.10
2019-02-28T13:15:29.855Z,16.10
2019-02-28T13:17:58.899Z,16.10
2019-02-28T13:20:32.113Z,16.30
2019-02-28T13:23:01.170Z,16.40
2019-02-28T13:25:30.491Z,16.20
2019-02-28T13:27:59.801Z,16.30
2019-02-28T13:30:28.915Z,16.30
2019-02-28T13:32:57.984Z,16.40
2019-02-28T13:35:29.043Z,16.50
2019-02-28T13:37:58.170Z,16.30
2019-02-28T13:40:27.133Z,16.20
2019-02-28T13:42:56.714Z,16.40
2019-02-28T13:45:25.942Z,16.40
2019-02-28T13:47:55.401Z,16.40
2019-02-28T13:50:26.915Z,16.20
2019-02-28T13:52:56.397Z,16.20
2019-02-28T13:55:25.708Z,16.40
2019-02-28T13:57:55.016Z,16.40
2019-02-28T14:00:25.809Z,16.40
2019-02-28T14:03:08.787Z,16.50
2019-02-28T14:05:38.453Z,16.40
2019-02-28T14:08:09.787Z,16.40
2019-02-28T14:10:35.280Z,16.50
2019-02-28T14:13:04.870Z,16.70
2019-02-28T14:15:39.017Z,16.70
2019-02-28T14:18:10.701Z,16.80
2019-02-28T14:20:39.280Z,16.80
2019-02-28T14:23:08.303Z,16.80
2019-02-28T14:25:40.015Z,16.70
2019-02-28T14:28:08.814Z,16.60
2019-02-28T14:30:37.911Z,16.60
2019-02-28T14:33:07.380Z,16.60
2019-02-28T14:35:38.479Z,16.50
2019-02-28T14:38:07.563Z,16.60
2019-02-28T14:40:37.913Z,16.60
2019-02-28T14:43:07.233Z,16.70
2019-02-28T14:45:39.004Z,16.50
2019-02-28T14:48:07.790Z,16.60
2019-02-28T14:50:36.801Z,16.60
2019-02-28T14:53:06.168Z,16.40
2019-02-28T14:55:37.389Z,16.50
2019-02-28T14:58:06.225Z,16.40
2019-02-28T15:00:35.709Z,16.30
2019-02-28T15:03:04.775Z,16.20
2019-02-28T15:05:35.113Z,16.20
2019-02-28T15:08:04.161Z,15.90
2019-02-28T15:10:34.447Z,16.10
2019-02-28T15:13:05.045Z,16.10
2019-02-28T15:15:49.440Z,16.10
2019-02-28T15:18:18.313Z,15.80
2019-02-28T15:20:47.337Z,16.00
2019-02-28T15:23:16.537Z,16.10
2019-02-28T15:25:45.991Z,16.20
2019-02-28T15:28:15.041Z,16.30
2019-02-28T15:30:44.346Z,16.30
2019-02-28T15:33:13.646Z,16.20
2019-02-28T15:35:42.973Z,16.10
2019-02-28T15:38:12.260Z,16.20
2019-02-28T15:40:41.462Z,16.20
2019-02-28T15:43:10.929Z,16.20
2019-02-28T15:45:40.287Z,16.20
2019-02-28T15:48:09.559Z,16.20
2019-02-28T15:50:38.802Z,16.00
2019-02-28T15:53:11.148Z,15.90
2019-02-28T15:55:38.845Z,15.90
2019-02-28T15:58:08.460Z,15.90
2019-02-28T16:00:37.788Z,16.00
2019-02-28T16:03:07.214Z,16.00
2019-02-28T16:05:42.417Z,16.00
2019-02-28T16:08:10.470Z,16.00
2019-02-28T16:10:37.900Z,15.90
2019-02-28T16:13:07.485Z,16.10
2019-02-28T16:15:36.803Z,16.00
2019-02-28T16:18:08.652Z,15.90
2019-02-28T16:20:38.264Z,15.80
2019-02-28T16:23:07.812Z,15.70
2019-02-28T16:25:37.104Z,15.50
2019-02-28T16:28:08.804Z,15.30
2019-02-28T16:30:38.588Z,15.20
2019-02-28T16:33:08.351Z,15.10
2019-02-28T16:35:37.690Z,15.10
2019-02-28T16:38:10.918Z,15.00
2019-02-28T16:40:40.343Z,14.90
2019-02-28T16:43:09.765Z,14.90
2019-02-28T16:45:44.509Z,14.70
2019-02-28T16:48:13.822Z,14.60
2019-02-28T16:50:42.861Z,14.50
2019-02-28T16:53:16.151Z,14.40
2019-02-28T16:55:43.406Z,14.40
2019-02-28T16:58:12.597Z,14.30
2019-02-28T17:00:42.596Z,14.10
2019-02-28T17:03:13.165Z,14.10
2019-02-28T17:05:42.138Z,14.00
2019-02-28T17:08:11.520Z,13.90
2019-02-28T17:10:43.426Z,13.90
2019-02-28T17:13:26.496Z,13.80
2019-02-28T17:16:17.493Z,13.80
2019-02-28T17:18:46.883Z,13.70
2019-02-28T17:21:17.903Z,13.70
2019-02-28T17:23:47.291Z,13.80
2019-02-28T17:26:16.434Z,13.70
2019-02-28T17:29:05.558Z,13.70
2019-02-28T17:31:44.498Z,13.70
2019-02-28T17:34:17.753Z,13.60
2019-02-28T17:36:47.619Z,13.50
2019-02-28T17:39:18.237Z,13.40
2019-02-28T17:41:47.314Z,13.30
2019-02-28T17:44:33.961Z,13.20
2019-02-28T17:47:05.242Z,13.10
2019-02-28T17:50:12.231Z,13.00
2019-02-28T17:52:50.401Z,12.90
2019-02-28T17:55:47.381Z,12.80
2019-02-28T17:58:38.925Z,12.80
2019-02-28T18:01:38.345Z,12.90
2019-02-28T18:04:37.342Z,12.90
2019-02-28T18:07:48.453Z,12.80
2019-02-28T18:10:49.228Z,12.80
2019-02-28T18:13:46.801Z,12.70
2019-02-28T18:16:32.464Z,12.70
2019-02-28T18:19:21.479Z,12.70
2019-02-28T18:22:24.649Z,12.60
2019-02-28T18:25:18.864Z,12.60
2019-02-28T18:28:22.246Z,12.40
2019-02-28T18:31:05.908Z,12.40
2019-02-28T18:33:35.233Z,12.30
2019-02-28T18:36:08.272Z,12.20
2019-02-28T18:38:38.305Z,12.20
2019-02-28T18:41:07.486Z,12.10
2019-02-28T18:43:36.540Z,12.00
2019-02-28T18:46:06.313Z,12.00
2019-02-28T18:48:37.761Z,11.90
2019-02-28T18:51:06.800Z,11.80
2019-02-28T18:53:36.179Z,11.80
2019-02-28T18:56:05.283Z,11.70
2019-02-28T18:58:35.014Z,11.60
2019-02-28T19:01:04.749Z,11.70
2019-02-28T19:03:34.198Z,11.60
2019-02-28T19:06:03.251Z,11.50
2019-02-28T19:08:32.670Z,11.50
2019-02-28T19:11:01.630Z,11.50
2019-02-28T19:13:30.545Z,11.40
2019-02-28T19:15:59.589Z,11.40
2019-02-28T19:18:28.910Z,11.40
2019-02-28T19:20:58.430Z,11.30
2019-02-28T19:23:27.694Z,11.40
2019-02-28T19:25:56.716Z,11.40
2019-02-28T19:28:26.282Z,11.40
2019-02-28T19:30:55.339Z,11.40
2019-02-28T19:33:24.278Z,11.30
2019-02-28T19:35:53.374Z,11.30
2019-02-28T19:38:22.817Z,11.20
2019-02-28T19:40:54.000Z,11.30
2019-02-28T19:43:23.624Z,11.30
2019-02-28T19:45:54.273Z,11.20
2019-02-28T19:48:43.058Z,11.20
2019-02-28T19:51:12.806Z,11.20
2019-02-28T19:53:44.419Z,11.20
2019-02-28T19:56:13.837Z,11.20
2019-02-28T19:58:43.140Z,11.20
2019-02-28T20:01:18.998Z,11.20
2019-02-28T20:03:43.580Z,11.10
2019-02-28T20:06:12.658Z,11.20
2019-02-28T20:08:41.738Z,11.10
2019-02-28T20:11:10.962Z,11.10
2019-02-28T20:13:40.353Z,11.10
2019-02-28T20:16:09.669Z,11.00
2019-02-28T20:18:38.875Z,11.00
2019-02-28T20:21:08.881Z,11.00
2019-02-28T20:23:38.392Z,11.00
2019-02-28T20:26:09.501Z,11.00
2019-02-28T20:28:39.520Z,11.10
2019-02-28T20:31:09.686Z,11.10
2019-02-28T20:33:39.153Z,11.10
2019-02-28T20:36:10.312Z,11.00
2019-02-28T20:38:39.351Z,11.10
2019-02-28T20:41:08.477Z,11.00
2019-02-28T20:43:40.310Z,11.00
2019-02-28T20:46:09.319Z,10.90
2019-02-28T20:48:38.685Z,10.90
2019-02-28T20:51:08.067Z,11.00
2019-02-28T20:53:37.188Z,10.90
2019-02-28T20:56:08.589Z,10.90
2019-02-28T20:58:38.181Z,10.90
2019-02-28T21:01:07.763Z,10.90
2019-02-28T21:03:45.204Z,10.90
2019-02-28T21:06:14.950Z,10.90
2019-02-28T21:08:44.242Z,10.90
2019-02-28T21:11:13.389Z,10.90
2019-02-28T21:13:42.776Z,10.90
2019-02-28T21:16:13.527Z,10.90
2019-02-28T21:18:42.583Z,10.80
2019-02-28T21:21:11.681Z,10.80
2019-02-28T21:23:40.725Z,10.80
2019-02-28T21:26:10.013Z,10.70
2019-02-28T21:28:38.945Z,10.70
2019-02-28T21:31:08.345Z,10.70
2019-02-28T21:33:37.837Z,10.70
2019-02-28T21:36:07.405Z,10.70
2019-02-28T21:38:38.952Z,10.60
2019-02-28T21:41:08.261Z,10.60
2019-02-28T21:43:37.281Z,10.60
2019-02-28T21:46:06.358Z,10.60
2019-02-28T21:48:35.931Z,10.60
2019-02-28T21:51:05.318Z,10.60
2019-02-28T21:53:34.968Z,10.60
2019-02-28T21:59:33.277Z,10.60
2019-02-28T22:02:03.002Z,10.60
2019-02-28T22:04:32.909Z,10.60
2019-02-28T22:07:03.540Z,10.60
2019-02-28T22:09:33.789Z,10.60
2019-02-28T22:12:03.599Z,10.60
2019-02-28T22:14:33.871Z,10.60
2019-02-28T22:17:03.814Z,10.70
2019-02-28T22:19:33.707Z,10.60
2019-02-28T22:22:03.837Z,10.60
2019-02-28T22:24:33.827Z,10.60
2019-02-28T22:27:02.978Z,10.70
2019-02-28T22:29:31.999Z,10.70
2019-02-28T22:32:29.349Z,10.70
2019-02-28T22:35:03.861Z,10.70
2019-02-28T22:37:36.299Z,10.70
2019-02-28T22:40:05.997Z,10.60
2019-02-28T22:42:35.402Z,10.60
2019-02-28T22:45:04.868Z,10.70
2019-02-28T22:47:33.946Z,10.70
2019-02-28T22:50:03.046Z,10.70
2019-02-28T22:52:32.087Z,10.70
2019-02-28T22:55:03.107Z,10.70
2019-02-28T22:57:32.194Z,10.70
2019-02-28T23:00:01.214Z,10.60
2019-02-28T23:02:30.886Z,10.60
2019-02-28T23:04:59.963Z,10.60
2019-02-28T23:07:29.054Z,10.70
2019-02-28T23:09:58.401Z,10.60
2019-02-28T23:12:27.423Z,10.60
2019-02-28T23:14:56.410Z,10.60
2019-02-28T23:17:26.058Z,10.60
2019-02-28T23:19:55.106Z,10.60
2019-02-28T23:22:24.478Z,10.60
2019-02-28T23:24:53.636Z,10.60
2019-02-28T23:27:22.694Z,10.50
2019-02-28T23:30:21.346Z,10.50
2019-02-28T23:32:56.982Z,10.50
2019-02-28T23:35:30.030Z,10.50
2019-02-28T23:37:59.093Z,10.40
2019-02-28T23:40:28.201Z,10.40
2019-02-28T23:42:57.543Z,10.40
2019-02-28T23:45:26.811Z,10.30
2019-02-28T23:47:56.183Z,10.30
2019-02-28T23:50:26.073Z,10.20
2019-02-28T23:52:55.410Z,10.20
2019-02-28T23:55:24.440Z,10.10
2019-02-28T23:57:53.498Z,10.10
